createdAt,value
2022-08-05T08:45:24.750Z,999.95
2022-08-05T08:45:31.114Z,1000.01
2022-08-05T08:46:04.334Z,1000.00
2022-08-05T08:47:34.590Z,999.96
2022-08-05T08:48:12.792Z,999.97
2022-08-05T08:50:05.774Z,1000.01
2022-08-05T08:50:51.979Z,1000.02
2022-08-05T08:52:01.852Z,1000.03
2022-08-05T08:52:13.750Z,999.98
2022-08-05T08:53:08.108Z,999.96
2022-08-05T08:54:04.256Z,999.97
2022-08-05T08:55:04.252Z,1000.01
2022-08-05T08:56:06.001Z,1000.11
2022-08-05T08:57:04.210Z,1000.16
2022-08-05T08:58:04.210Z,1000.22
2022-08-05T08:59:09.757Z,1000.15
2022-08-05T09:00:04.473Z,1000.06
2022-08-05T09:01:04.310Z,1000.01
2022-08-05T09:02:04.171Z,1000.00
2022-08-05T09:03:04.159Z,1000.02
2022-08-05T09:04:04.158Z,1000.05
2022-08-05T09:05:17.883Z,1000.04
2022-08-05T09:06:07.531Z,1000.02
2022-08-05T09:07:04.139Z,1000.03
2022-08-05T09:08:04.105Z,1000.03
2022-08-05T09:09:04.110Z,1000.07
2022-08-05T09:10:04.120Z,1000.05
2022-08-05T09:11:04.130Z,999.97
2022-08-05T09:12:20.122Z,999.98
2022-08-05T09:13:04.846Z,999.95
2022-08-05T09:14:54.073Z,999.93
2022-08-05T09:15:05.798Z,999.93
2022-08-05T09:16:04.010Z,999.93
2022-08-05T09:17:04.042Z,999.90
2022-08-05T09:18:04.010Z,999.86
2022-08-05T09:19:06.750Z,999.83
2022-08-05T09:20:05.006Z,999.79
2022-08-05T09:21:03.967Z,999.76
2022-08-05T09:22:21.746Z,999.74
2022-08-05T09:23:05.515Z,999.76
2022-08-05T09:24:03.947Z,999.75
2022-08-05T09:25:24.100Z,999.71
2022-08-05T09:26:06.422Z,999.68
2022-08-05T09:27:03.913Z,999.67
2022-08-05T09:28:06.439Z,999.67
2022-08-05T09:29:03.866Z,999.64
2022-08-05T09:30:06.575Z,999.60
2022-08-05T09:31:22.593Z,999.57
2022-08-05T09:32:51.579Z,999.58
2022-08-05T09:33:04.758Z,999.58
2022-08-05T09:34:03.843Z,999.55
2022-08-05T09:35:03.811Z,999.54
2022-08-05T09:36:11.841Z,999.54
2022-08-05T09:37:03.820Z,999.53
2022-08-05T09:38:12.357Z,999.46
2022-08-05T09:39:03.811Z,999.42
2022-08-05T09:40:03.836Z,999.36
2022-08-05T09:41:03.732Z,999.33
2022-08-05T09:42:03.790Z,999.30
2022-08-05T09:43:03.719Z,999.32
2022-08-05T09:44:03.733Z,999.33
2022-08-05T09:46:05.070Z,999.32
2022-08-05T09:46:12.529Z,999.32
2022-08-05T09:47:03.684Z,999.30
2022-08-05T09:48:03.702Z,999.25
2022-08-05T09:49:08.190Z,999.24
2022-08-05T09:50:03.686Z,999.26
2022-08-05T09:51:03.635Z,999.30
2022-08-05T09:52:03.628Z,999.31
2022-08-05T09:53:03.600Z,999.31
2022-08-05T09:54:03.621Z,999.27
2022-08-05T09:55:55.029Z,999.26
2022-08-05T09:56:03.996Z,999.28
2022-08-05T09:57:03.567Z,999.31
2022-08-05T09:58:03.559Z,999.39
2022-08-05T09:59:04.221Z,999.42
2022-08-05T10:00:07.566Z,999.43
2022-08-05T10:01:15.421Z,999.42
2022-08-05T10:02:03.534Z,999.41
2022-08-05T10:03:03.595Z,999.42
2022-08-05T10:04:03.586Z,999.45
2022-08-05T10:05:03.483Z,999.45
2022-08-05T10:06:07.527Z,999.46
2022-08-05T10:07:14.152Z,999.45
2022-08-05T10:08:35.703Z,999.44
2022-08-05T10:09:03.436Z,999.39
2022-08-05T10:10:14.042Z,999.37
2022-08-05T10:11:03.403Z,999.38
2022-08-05T10:12:07.444Z,999.42
2022-08-05T10:13:03.691Z,999.40
2022-08-05T10:14:03.379Z,999.37
2022-08-05T10:15:03.429Z,999.33
